Time;durP1;ratioP1;P1;durP2;ratioP2;P2;SDS_P1;SDS_P2;PMS_P1;PMS_P2;Temp;Humidity;BMP_temperature;BMP_pressure;BME280_temperature;BME280_humidity;BME280_pressure;Samples;Min_cycle;Max_cycle;Signal;HPM_P1;HPM_P2
2023/07/29 01:02:34;;;;;;;;;2.75;2.75;;;;;26.12;83.65;100147.78;6264182;22;45580;-81
2023/07/29 01:05:01;;;;;;;;;3.00;3.00;;;;;25.74;nan;100159.06;6263575;22;45180;-81
2023/07/29 01:07:56;;;;;;;;;1.00;1.00;;;;;26.07;82.58;100155.31;6237054;22;45038;-82
2023/07/29 01:10:50;;;;;;;;;2.00;2.00;;;;;26.04;80.48;100139.19;6264176;22;45208;-81
2023/07/29 01:13:47;;;;;;;;;2.00;2.00;;;;;25.92;80.56;100129.88;6236697;22;44815;-82
2023/07/29 01:16:20;;;;;;;;;3.00;2.25;;;;;25.87;81.64;100115.63;6170798;23;47009;-83
2023/07/29 01:18:49;;;;;;;;;1.00;1.00;;;;;25.72;81.34;100125.59;6167275;23;45263;-83
2023/07/29 01:21:17;;;;;;;;;3.00;3.00;;;;;25.89;80.96;100135.47;6145148;23;44891;-83
2023/07/29 01:23:42;;;;;;;;;4.25;1.25;;;;;25.80;80.16;100133.31;6145242;23;45064;-83
2023/07/29 01:57:10;;;;;;;;;0.50;0.50;;;;;25.45;78.69;100102.69;6152315;22;47267;-82
2023/07/29 01:59:36;;;;;;;;;2.75;2.00;;;;;25.55;77.77;100134.75;6263857;22;44804;-82
2023/07/29 02:02:01;;;;;;;;;0.00;0.00;;;;;25.79;77.41;100131.53;6265005;22;44815;-82
2023/07/29 02:04:27;;;;;;;;;2.00;2.00;;;;;25.72;77.28;100155.53;6265388;22;44732;-83
2023/07/29 02:06:52;;;;;;;;;1.25;1.00;;;;;25.68;77.17;100166.72;6238416;22;47255;-82
2023/07/29 02:09:17;;;;;;;;;1.00;1.00;;;;;25.69;77.53;100158.47;6237458;22;44806;-83
2023/07/29 02:11:43;;;;;;;;;1.00;1.00;;;;;25.62;77.52;100140.72;6238459;22;44670;-82
2023/07/29 02:14:08;;;;;;;;;1.00;1.00;;;;;25.72;76.83;100125.59;6238616;22;44843;-83
2023/07/29 02:16:34;;;;;;;;;1.50;0.75;;;;;25.64;76.94;100125.16;6264897;22;45071;-82
2023/07/29 02:19:00;;;;;;;;;1.50;1.50;;;;;25.62;76.40;100135.25;6264370;22;44736;-82
2023/07/29 02:24:47;;;;;;;;;1.75;1.75;;;;;25.52;75.83;100110.41;6264984;22;44782;-83
2023/07/29 02:27:13;;;;;;;;;1.00;1.00;;;;;25.54;75.83;100121.22;6262641;22;45072;-81
2023/07/29 02:29:38;;;;;;;;;1.50;1.50;;;;;25.49;76.08;100126.03;6254348;22;45264;-82
2023/07/29 02:32:03;;;;;;;;;1.00;1.00;;;;;25.45;75.77;100140.78;6255202;22;45038;-81
2023/07/29 02:34:29;;;;;;;;;1.00;1.00;;;;;25.39;76.09;100141.16;6228186;22;44870;-81
2023/07/29 02:36:55;;;;;;;;;0.50;0.50;;;;;25.26;76.38;100135.53;6228292;22;47070;-81
2023/07/29 02:39:20;;;;;;;;;1.50;1.50;;;;;25.26;75.77;100130.97;6256578;22;45074;-82
2023/07/29 02:41:46;;;;;;;;;3.00;1.25;;;;;25.22;76.30;100137.53;6229452;22;44895;-82
2023/07/29 02:44:11;;;;;;;;;1.00;1.00;;;;;25.18;76.18;100129.63;6227514;22;44729;-83
2023/07/29 02:47:27;;;;;;;;;0.50;0.50;;;;;25.60;75.74;100126.31;6253790;22;45036;-81
2023/07/29 02:49:52;;;;;;;;;2.25;0.00;;;;;25.09;75.66;100131.00;6255275;22;45083;-81
2023/07/29 02:52:18;;;;;;;;;1.00;1.00;;;;;25.12;76.48;100142.59;6255480;22;45197;-81
2023/07/29 02:54:43;;;;;;;;;3.00;1.00;;;;;24.97;76.94;100145.31;6255399;22;45475;-82
2023/07/29 02:57:09;;;;;;;;;1.00;1.00;;;;;24.98;76.97;100149.75;6225324;22;47110;-81
2023/07/29 03:00:24;;;;;;;;;0.00;0.00;;;;;25.35;76.13;100138.63;6250900;22;44728;-81
2023/07/29 03:02:50;;;;;;;;;2.00;1.00;;;;;24.85;77.21;100136.84;6227663;22;44886;-82
2023/07/29 03:05:16;;;;;;;;;0.50;0.50;;;;;24.84;77.02;100145.94;6227477;22;44877;-81
2023/07/29 03:07:41;;;;;;;;;1.00;1.00;;;;;24.86;77.08;100151.31;6255285;22;45104;-81
2023/07/29 03:10:08;;;;;;;;;1.00;1.00;;;;;24.91;76.76;100161.00;6253734;22;44975;-82
2023/07/29 03:12:33;;;;;;;;;1.00;1.00;;;;;24.82;76.93;100153.31;6252705;22;45172;-81
2023/07/29 03:15:00;;;;;;;;;1.00;1.00;;;;;24.82;77.23;100158.75;6226606;22;44865;-81
2023/07/29 03:17:28;;;;;;;;;1.00;1.00;;;;;25.09;77.19;100155.50;6224887;22;47111;-82
2023/07/29 03:19:54;;;;;;;;;1.00;1.00;;;;;24.74;76.44;100150.13;6224927;22;44904;-82
2023/07/29 03:22:19;;;;;;;;;0.50;0.50;;;;;24.75;77.48;100158.22;6253823;22;44882;-81
2023/07/29 03:24:45;;;;;;;;;1.00;1.00;;;;;24.73;77.40;100157.44;6255293;22;44912;-81
2023/07/29 03:27:10;;;;;;;;;0.00;0.00;;;;;24.77;77.40;100166.31;6226968;22;46865;-81
2023/07/29 03:29:36;;;;;;;;;1.00;1.00;;;;;24.75;77.11;100173.66;6252400;22;45244;-82
2023/07/29 03:32:01;;;;;;;;;1.00;1.00;;;;;24.66;77.62;100171.44;6252747;22;44998;-82
2023/07/29 03:34:27;;;;;;;;;1.00;1.00;;;;;24.67;77.71;100173.19;6253551;22;44756;-82
2023/07/29 03:36:52;;;;;;;;;2.67;2.00;;;;;24.66;77.73;100174.16;6253354;22;47046;-82
2023/07/29 03:39:21;;;;;;;;;2.00;2.00;;;;;24.63;77.59;100168.88;6227258;22;45232;-81
2023/07/29 03:41:46;;;;;;;;;1.00;1.00;;;;;24.70;76.94;100179.38;6254987;22;44811;-80
2023/07/29 03:44:11;;;;;;;;;1.25;1.00;;;;;24.64;77.98;100176.06;6252111;22;44700;-82
2023/07/29 03:46:37;;;;;;;;;2.00;2.00;;;;;24.66;77.25;100174.16;6254400;22;44991;-82
2023/07/29 03:49:03;;;;;;;;;2.00;2.00;;;;;24.64;77.40;100165.19;6251953;22;45001;-82
2023/07/29 03:51:28;;;;;;;;;1.00;1.00;;;;;24.73;76.65;100175.59;6254649;22;45169;-82
2023/07/29 03:53:53;;;;;;;;;2.67;2.00;;;;;24.64;77.58;100181.50;6227619;22;44789;-82
2023/07/29 03:56:19;;;;;;;;;2.00;2.00;;;;;24.59;77.59;100179.03;6226830;22;47048;-81
2023/07/29 03:58:46;;;;;;;;;2.00;2.00;;;;;24.77;77.75;100160.88;6226564;22;44788;-82
2023/07/29 04:01:12;;;;;;;;;2.00;2.00;;;;;24.57;77.49;100156.50;6226243;22;44726;-81
2023/07/29 04:03:37;;;;;;;;;1.00;1.00;;;;;24.50;77.60;100174.06;6226980;22;44860;-82
2023/07/29 04:06:02;;;;;;;;;3.00;3.00;;;;;24.45;77.93;100158.00;6253607;22;44907;-82
2023/07/29 04:08:28;;;;;;;;;1.50;1.50;;;;;24.55;77.84;100175.59;6226800;22;44736;-82
2023/07/29 04:10:54;;;;;;;;;2.75;2.75;;;;;24.51;77.81;100174.00;6254429;22;44811;-82
2023/07/29 04:16:42;;;;;;;;;3.33;3.33;;;;;24.37;78.11;100176.53;6253034;22;45174;-81
2023/07/29 04:19:07;;;;;;;;;5.00;3.25;;;;;24.35;78.62;100179.34;6228449;22;44745;-81
2023/07/29 04:21:32;;;;;;;;;2.50;2.50;;;;;24.37;78.32;100171.09;6255047;22;44821;-81
2023/07/29 04:23:58;;;;;;;;;3.00;3.00;;;;;24.35;78.21;100173.91;6228600;22;44822;-81
2023/07/29 04:26:26;;;;;;;;;3.33;2.67;;;;;24.64;78.03;100181.50;6254205;22;45181;-81
2023/07/29 04:28:53;;;;;;;;;1.75;1.75;;;;;24.30;78.40;100194.16;6227737;22;44689;-83
2023/07/29 04:31:18;;;;;;;;;2.67;2.67;;;;;24.27;78.25;100183.41;6255360;22;44764;-82
2023/07/29 04:33:44;;;;;;;;;3.00;2.00;;;;;24.28;78.59;100196.03;6228249;22;44757;-81
2023/07/29 04:36:10;;;;;;;;;1.00;1.00;;;;;24.29;78.38;100186.94;6253609;22;44853;-82
2023/07/29 04:38:37;;;;;;;;;2.00;2.00;;;;;24.53;77.93;100184.81;6252534;22;44815;-81
2023/07/29 04:41:03;;;;;;;;;2.00;2.00;;;;;24.35;77.62;100192.91;6250713;22;45203;-81
2023/07/29 04:43:31;;;;;;;;;2.33;2.33;;;;;24.56;77.77;100184.63;6252696;22;44779;-82
2023/07/29 04:45:57;;;;;;;;;3.00;1.00;;;;;24.42;78.23;100177.19;6255260;22;45196;-82
2023/07/29 04:48:23;;;;;;;;;1.00;1.00;;;;;24.28;77.21;100179.72;6228372;22;44950;-82
2023/07/29 04:50:48;;;;;;;;;2.00;2.00;;;;;24.23;77.47;100176.38;6229108;22;45243;-82
2023/07/29 04:53:14;;;;;;;;;3.50;2.00;;;;;24.14;76.98;100189.50;6226782;22;44852;-82
2023/07/29 04:55:42;;;;;;;;;2.00;2.00;;;;;24.32;78.04;100181.34;6254322;22;45360;-82
2023/07/29 04:58:08;;;;;;;;;2.25;2.25;;;;;24.15;78.38;100174.94;6253365;22;44760;-83
2023/07/29 05:00:37;;;;;;;;;2.00;1.00;;;;;24.24;78.17;100178.13;6252132;22;44760;-82
2023/07/29 05:03:02;;;;;;;;;1.00;1.00;;;;;24.41;77.81;100191.72;6254393;22;44724;-81
2023/07/29 05:05:27;;;;;;;;;2.00;2.00;;;;;24.58;77.39;100188.16;6253999;22;44965;-81
2023/07/29 05:07:54;;;;;;;;;2.00;2.00;;;;;24.78;76.76;100197.97;6226883;22;44779;-82
2023/07/29 05:10:20;;;;;;;;;2.00;2.00;;;;;24.86;76.43;100195.72;6201320;22;45189;-81
2023/07/29 05:12:53;;;;;;;;;2.00;2.00;;;;;25.10;76.03;100203.50;6226573;22;44826;-82
2023/07/29 05:15:18;;;;;;;;;2.25;2.25;;;;;25.22;74.77;100193.81;6227169;22;47206;-82
2023/07/29 05:17:45;;;;;;;;;1.25;1.25;;;;;25.27;74.93;100203.50;6254761;22;44806;-81
2023/07/29 05:20:11;;;;;;;;;2.00;2.00;;;;;25.37;73.88;100198.41;6253524;22;44783;-82
2023/07/29 05:22:36;;;;;;;;;1.25;1.25;;;;;25.46;73.60;100194.28;6226528;22;45031;-81
2023/07/29 05:25:02;;;;;;;;;1.00;1.00;;;;;25.46;73.90;100206.06;6253855;22;45191;-81
2023/07/29 05:27:27;;;;;;;;;6.33;6.33;;;;;25.47;73.97;100210.53;6252848;22;45242;-82
2023/07/29 05:29:56;;;;;;;;;3.67;2.00;;;;;25.84;73.80;100202.97;6226246;22;44705;-82
2023/07/29 05:32:21;;;;;;;;;0.00;0.00;;;;;25.52;73.77;100202.09;6254290;22;44844;-82
2023/07/29 05:34:47;;;;;;;;;1.00;1.00;;;;;25.56;72.15;100203.69;6253591;22;45232;-83
2023/07/29 05:37:12;;;;;;;;;2.00;1.00;;;;;25.59;72.33;100208.94;6225620;22;45349;-82
2023/07/29 05:39:37;;;;;;;;;1.00;1.00;;;;;25.52;73.48;100210.28;6253697;22;45264;-82
2023/07/29 05:42:03;;;;;;;;;0.75;0.75;;;;;25.59;73.68;100210.78;6253117;22;45315;-82
2023/07/29 05:44:31;;;;;;;;;1.50;1.50;;;;;25.85;72.94;100203.84;6226010;22;46825;-81
2023/07/29 05:46:57;;;;;;;;;1.25;1.25;;;;;25.69;72.72;100210.22;6225223;22;44896;-81
2023/07/29 05:49:24;;;;;;;;;1.00;1.00;;;;;26.06;72.81;100208.09;6226320;22;45269;-82
2023/07/29 05:52:23;;;;;;;;;0.50;0.50;;;;;26.31;71.53;100204.78;6255395;22;44681;-81
2023/07/29 05:54:49;;;;;;;;;2.00;2.00;;;;;26.05;71.02;100208.19;6253443;22;45077;-82
2023/07/29 05:57:14;;;;;;;;;2.50;1.00;;;;;26.24;71.46;100202.50;6252914;22;44801;-83
2023/07/29 05:59:39;;;;;;;;;2.25;1.75;;;;;26.14;71.51;100204.91;6249121;22;44989;-82
2023/07/29 06:02:06;;;;;;;;;2.00;2.00;;;;;26.30;71.77;100210.34;6226133;22;44983;-81
2023/07/29 06:04:32;;;;;;;;;1.00;1.00;;;;;26.44;71.86;100199.47;6226304;22;47285;-81
2023/07/29 06:06:57;;;;;;;;;1.00;1.00;;;;;26.57;70.51;100202.31;6253505;22;44754;-81
2023/07/29 06:09:23;;;;;;;;;3.00;3.00;;;;;26.73;70.18;100203.16;6253230;22;45284;-81
2023/07/29 06:11:49;;;;;;;;;1.00;1.00;;;;;26.80;69.04;100203.66;6252618;22;45325;-81
2023/07/29 06:14:14;;;;;;;;;0.25;0.25;;;;;26.82;68.65;100211.75;6225055;22;47076;-81
2023/07/29 06:16:39;;;;;;;;;0.25;0.25;;;;;26.96;67.80;100221.81;6251777;22;45178;-81
2023/07/29 06:19:05;;;;;;;;;1.00;1.00;;;;;26.88;66.92;100223.16;6252786;22;44867;-81
2023/07/29 06:21:31;;;;;;;;;0.25;0.25;;;;;27.04;67.65;100222.19;6251894;22;44863;-81
2023/07/29 06:23:57;;;;;;;;;1.25;1.25;;;;;27.26;66.73;100233.53;6225107;22;46832;-80
2023/07/29 06:26:23;;;;;;;;;1.00;1.00;;;;;27.03;66.05;100236.84;6253178;22;44781;-81
2023/07/29 06:28:54;;;;;;;;;1.00;1.00;;;;;27.30;62.45;100235.09;6231227;22;44825;-81
2023/07/29 06:31:20;;;;;;;;;0.00;0.00;;;;;26.86;65.17;100232.41;6226222;22;45472;-80
2023/07/29 06:33:46;;;;;;;;;1.00;1.00;;;;;26.84;65.72;100232.50;6197671;22;47041;-81
2023/07/29 06:36:18;;;;;;;;;0.00;0.00;;;;;27.26;64.74;100233.53;6224939;22;44732;-82
2023/07/29 06:38:43;;;;;;;;;0.25;0.25;;;;;26.91;66.35;100239.34;6252716;22;44736;-81
2023/07/29 06:44:31;;;;;;;;;0.00;0.00;;;;;26.91;65.37;100238.47;6254388;22;44845;-81
2023/07/29 06:47:00;;;;;;;;;0.00;0.00;;;;;27.09;65.65;100236.44;6228210;22;44728;-81
2023/07/29 06:49:26;;;;;;;;;0.00;0.00;;;;;27.05;64.23;100240.34;6226790;22;44778;-81
2023/07/29 06:51:51;;;;;;;;;0.00;0.00;;;;;27.23;65.34;100241.94;6229278;22;44932;-81
2023/07/29 06:54:17;;;;;;;;;0.00;0.00;;;;;27.29;64.51;100237.97;6257451;22;45089;-81
2023/07/29 06:56:43;;;;;;;;;1.00;1.00;;;;;27.32;64.29;100237.75;6226621;22;44859;-83
2023/07/29 06:59:12;;;;;;;;;0.00;0.00;;;;;27.62;64.11;100228.56;6255512;22;45523;-78
2023/07/29 07:01:38;;;;;;;;;1.00;1.00;;;;;27.60;64.14;100250.50;6264542;22;44772;-81
2023/07/29 07:04:06;;;;;;;;;0.00;0.00;;;;;27.62;63.60;100221.22;6240539;22;46607;-81
2023/07/29 07:06:32;;;;;;;;;0.00;0.00;;;;;27.38;62.68;100228.28;6266303;22;44874;-81
2023/07/29 07:09:00;;;;;;;;;0.75;0.75;;;;;27.84;63.55;100238.94;6237839;22;44723;-80
2023/07/29 07:11:29;;;;;;;;;1.00;1.00;;;;;27.80;64.26;100265.59;6231278;22;44838;-85
2023/07/29 07:14:01;;;;;;;;;2.00;1.25;;;;;28.04;62.41;100252.19;6228624;22;44909;-84
2023/07/29 07:16:40;;;;;;;;;0.75;0.75;;;;;28.01;62.26;100263.31;6227821;22;44794;-84
2023/07/29 07:19:06;;;;;;;;;0.00;0.00;;;;;27.67;62.13;100273.72;6221621;22;45420;-84
2023/07/29 07:21:34;;;;;;;;;1.00;1.00;;;;;27.55;62.41;100271.75;6252040;22;45286;-84
2023/07/29 07:24:10;;;;;;;;;0.00;0.00;;;;;27.74;63.05;100255.06;6225506;22;46770;-85
2023/07/29 07:26:36;;;;;;;;;0.00;0.00;;;;;27.53;62.30;100262.78;6224706;22;45280;-84
2023/07/29 07:29:02;;;;;;;;;0.00;0.00;;;;;27.66;62.55;100285.63;6252107;22;44799;-85
2023/07/29 07:31:34;;;;;;;;;0.00;0.00;;;;;27.97;60.88;100267.25;6252539;22;45800;-84
2023/07/29 07:34:02;;;;;;;;;0.25;0.25;;;;;27.76;61.58;100271.38;6224607;22;45345;-84
2023/07/29 07:36:27;;;;;;;;;1.00;1.00;;;;;27.66;61.66;100241.91;6252535;22;45335;-84
2023/07/29 07:38:59;;;;;;;;;0.50;0.50;;;;;27.97;61.43;100280.91;6252486;22;45304;-84
2023/07/29 07:41:32;;;;;;;;;0.00;0.00;;;;;28.31;61.55;100275.94;6253697;22;44878;-85
2023/07/29 07:44:03;;;;;;;;;0.00;0.00;;;;;28.22;62.17;100287.47;6252309;22;45174;-84
2023/07/29 07:46:32;;;;;;;;;0.00;0.00;;;;;28.37;61.23;100267.31;6223934;22;45358;-84
2023/07/29 07:49:07;;;;;;;;;1.50;1.50;;;;;28.82;59.63;100264.28;6251215;22;44718;-84
2023/07/29 07:51:33;;;;;;;;;0.00;0.00;;;;;28.62;60.62;100276.59;6251683;22;45594;-84
2023/07/29 07:53:59;;;;;;;;;1.00;1.00;;;;;28.63;60.97;100264.69;6251415;22;45411;-84
2023/07/29 07:56:24;;;;;;;;;1.00;1.00;;;;;28.73;60.87;100254.84;6249201;22;44784;-83
2023/07/29 07:58:49;;;;;;;;;0.75;0.75;;;;;28.96;60.98;100272.41;6249508;22;45314;-85
2023/07/29 08:01:15;;;;;;;;;1.00;1.00;;;;;29.02;59.61;100263.75;6222394;22;45422;-85
2023/07/29 08:03:40;;;;;;;;;2.00;2.00;;;;;29.06;59.56;100269.88;6249721;22;45930;-85
2023/07/29 08:06:06;;;;;;;;;1.00;1.00;;;;;29.19;59.71;100273.56;6248225;22;45355;-84
2023/07/29 08:09:24;;;;;;;;;1.00;1.00;;;;;29.86;57.58;100278.75;6222873;22;45094;-85
2023/07/29 08:11:49;;;;;;;;;0.50;0.50;;;;;29.51;58.31;100273.97;6224427;22;44848;-85
2023/07/29 08:14:15;;;;;;;;;1.00;1.00;;;;;29.54;58.84;100280.22;6250591;22;45000;-85
2023/07/29 08:16:40;;;;;;;;;1.00;1.00;;;;;29.48;55.76;100273.31;6251870;22;44718;-85
2023/07/29 08:19:07;;;;;;;;;1.00;1.00;;;;;29.32;56.59;100282.63;6251951;22;45427;-85
2023/07/29 08:21:32;;;;;;;;;1.25;1.25;;;;;29.27;58.16;100293.06;6222846;22;45321;-86
2023/07/29 08:23:57;;;;;;;;;0.00;0.00;;;;;29.26;57.92;100285.81;6249681;22;44948;-85
2023/07/29 08:26:23;;;;;;;;;0.00;0.00;;;;;29.37;58.23;100281.41;6223196;22;45385;-86
2023/07/29 08:28:50;;;;;;;;;1.00;1.00;;;;;29.50;58.34;100276.81;6223603;22;45270;-85
2023/07/29 08:31:16;;;;;;;;;1.00;1.00;;;;;29.56;58.50;100281.84;6251302;22;44711;-86
2023/07/29 08:37:03;;;;;;;;;0.25;0.25;;;;;29.50;56.78;100276.81;6252168;22;44851;-85
2023/07/29 08:39:28;;;;;;;;;1.00;1.00;;;;;29.39;56.51;100268.50;6251435;22;45386;-85
2023/07/29 08:42:04;;;;;;;;;2.00;1.50;;;;;29.50;56.88;100276.81;6222185;22;45407;-85
2023/07/29 08:44:36;;;;;;;;;1.00;1.00;;;;;29.44;57.46;100271.78;6196197;22;47061;-85
2023/07/29 08:47:03;;;;;;;;;0.00;0.00;;;;;29.34;57.80;100267.97;6248078;22;45465;-84
2023/07/29 08:49:30;;;;;;;;;2.00;2.00;;;;;29.52;58.09;100263.88;6221925;22;44726;-84
2023/07/29 08:51:58;;;;;;;;;0.00;0.00;;;;;29.66;57.03;100269.22;6250657;22;45669;-84
2023/07/29 08:54:27;;;;;;;;;0.75;0.75;;;;;29.98;56.86;100262.41;6249868;22;46966;-85
2023/07/29 08:56:53;;;;;;;;;1.00;1.00;;;;;29.93;57.22;100262.72;6195459;22;46176;-83
2023/07/29 08:59:19;;;;;;;;;0.25;0.25;;;;;30.24;57.03;100263.19;6222973;22;44821;-84
2023/07/29 09:01:46;;;;;;;;;0.25;0.25;;;;;30.39;56.02;100256.53;6223016;22;45309;-85
2023/07/29 09:04:12;;;;;;;;;1.00;1.00;;;;;30.33;55.42;100254.25;6224386;22;46961;-86
2023/07/29 09:06:39;;;;;;;;;0.00;0.00;;;;;30.50;54.99;100253.84;6223691;22;44740;-85
2023/07/29 09:09:07;;;;;;;;;0.50;0.50;;;;;30.25;55.99;100242.97;6226426;22;44745;-85
2023/07/29 09:11:33;;;;;;;;;0.00;0.00;;;;;30.36;53.40;100244.91;6225718;22;44825;-85
2023/07/29 09:13:59;;;;;;;;;1.00;1.00;;;;;30.69;55.17;100246.91;6251324;22;45818;-83
2023/07/29 09:16:26;;;;;;;;;0.25;0.25;;;;;30.70;55.30;100241.31;6252814;22;45348;-84
2023/07/29 09:18:57;;;;;;;;;0.75;0.75;;;;;30.98;54.99;100246.53;6249902;22;45616;-84
2023/07/29 09:21:28;;;;;;;;;0.25;0.25;;;;;31.33;54.66;100249.22;6249852;22;44831;-84
2023/07/29 09:23:55;;;;;;;;;0.00;0.00;;;;;31.57;54.06;100251.88;6219835;22;47079;-84
2023/07/29 09:26:25;;;;;;;;;1.00;1.00;;;;;31.86;53.24;100241.19;6248560;22;44774;-84
2023/07/29 09:28:58;;;;;;;;;0.25;0.25;;;;;31.76;52.24;100242.09;6222841;22;45351;-84
2023/07/29 09:31:24;;;;;;;;;1.00;1.00;;;;;31.21;51.78;100240.06;6249498;22;45332;-85
2023/07/29 09:33:59;;;;;;;;;0.75;0.75;;;;;31.29;51.78;100248.56;6220879;22;47456;-84
2023/07/29 09:36:31;;;;;;;;;0.50;0.50;;;;;31.10;52.66;100257.41;6249014;22;44771;-84
2023/07/29 09:38:57;;;;;;;;;0.25;0.25;;;;;30.73;53.07;100237.44;6221308;22;45429;-84
2023/07/29 09:41:27;;;;;;;;;1.75;1.75;;;;;31.14;52.59;100251.66;6251434;22;45399;-84
2023/07/29 09:44:01;;;;;;;;;0.50;0.25;;;;;31.07;52.87;100251.28;6197727;22;47060;-84
2023/07/29 09:46:34;;;;;;;;;1.00;1.00;;;;;31.05;51.65;100261.53;6222801;22;44961;-85
2023/07/29 09:49:03;;;;;;;;;0.75;0.75;;;;;30.78;52.94;100257.16;6248891;22;44789;-84
2023/07/29 09:54:50;;;;;;;;;1.00;0.75;;;;;30.59;54.01;100248.63;6248363;22;45355;-84
2023/07/29 09:57:18;;;;;;;;;1.00;1.00;;;;;30.96;53.49;100248.50;6220588;22;44841;-83
2023/07/29 09:59:53;;;;;;;;;1.50;1.50;;;;;31.13;53.44;100248.06;6248978;22;45590;-85
2023/07/29 10:02:21;;;;;;;;;1.50;1.50;;;;;31.18;54.13;100248.53;6248080;22;45386;-85
2023/07/29 10:04:46;;;;;;;;;2.00;2.00;;;;;31.39;53.62;100245.06;6221198;22;47323;-84
2023/07/29 10:07:12;;;;;;;;;1.25;1.25;;;;;31.60;53.27;100245.22;6249078;22;44920;-84
2023/07/29 10:09:42;;;;;;;;;1.50;1.00;;;;;31.90;52.77;100237.19;6219840;22;44857;-83
2023/07/29 10:12:09;;;;;;;;;1.50;1.50;;;;;31.96;51.80;100240.44;6248002;22;44694;-84
2023/07/29 10:14:38;;;;;;;;;1.00;1.00;;;;;31.82;50.55;100234.19;6219847;22;47002;-85
2023/07/29 10:17:04;;;;;;;;;1.75;1.75;;;;;31.57;52.12;100235.38;6221079;22;45294;-85
2023/07/29 10:19:30;;;;;;;;;2.50;2.50;;;;;31.30;51.95;100244.81;6248878;22;45351;-85
2023/07/29 10:22:01;;;;;;;;;1.50;1.50;;;;;31.30;53.19;100242.06;6222506;22;45319;-85
2023/07/29 10:24:31;;;;;;;;;2.00;2.00;;;;;31.09;52.76;100238.31;6251470;22;46669;-82
2023/07/29 10:27:00;;;;;;;;;1.50;1.50;;;;;30.87;52.57;100245.47;6254626;22;44722;-82
2023/07/29 10:29:31;;;;;;;;;2.00;2.00;;;;;30.82;52.96;100242.19;6253665;22;45245;-82
2023/07/29 10:31:59;;;;;;;;;1.25;1.25;;;;;30.70;53.51;100243.16;6228164;22;44912;-82
2023/07/29 10:34:25;;;;;;;;;1.00;1.00;;;;;30.68;52.92;100231.44;6260338;22;45024;-82
2023/07/29 10:36:52;;;;;;;;;2.75;2.75;;;;;30.63;54.17;100237.28;6244563;22;45222;-82
2023/07/29 10:39:18;;;;;;;;;2.75;2.75;;;;;30.56;53.85;100248.84;6271665;22;44740;-83
2023/07/29 10:41:56;;;;;;;;;1.50;1.50;;;;;31.02;53.69;100239.78;6270715;22;44754;-82
2023/07/29 10:44:50;;;;;;;;;1.50;1.50;;;;;31.00;53.76;100242.66;6269766;22;45160;-83
2023/07/29 10:47:17;;;;;;;;;1.00;1.00;;;;;30.69;53.84;100231.31;6270021;22;44720;-81
2023/07/29 10:49:43;;;;;;;;;2.25;2.25;;;;;30.64;52.52;100229.91;6270275;22;44722;-83
2023/07/29 10:52:13;;;;;;;;;2.00;2.00;;;;;30.88;53.72;100236.28;6270855;22;44731;-83
2023/07/29 10:54:43;;;;;;;;;2.50;2.50;;;;;31.13;53.21;100242.56;6218353;22;47221;-83
2023/07/29 10:57:14;;;;;;;;;2.00;2.00;;;;;31.37;51.85;100233.31;6243688;22;44782;-82
2023/07/29 11:00:03;;;;;;;;;2.25;2.00;;;;;31.29;52.76;100231.22;6244176;22;44796;-83
2023/07/29 11:02:35;;;;;;;;;2.00;2.00;;;;;31.69;52.83;100230.72;6240112;22;44968;-84
2023/07/29 11:05:06;;;;;;;;;2.75;2.75;;;;;31.81;52.09;100228.81;6221997;22;47390;-85
2023/07/29 11:08:22;;;;;;;;;2.50;2.50;;;;;32.03;52.02;100231.53;6195621;22;45341;-84
2023/07/29 11:11:00;;;;;;;;;3.25;3.25;;;;;32.21;51.25;100222.75;6222213;22;45446;-84
2023/07/29 11:13:36;;;;;;;;;3.25;3.25;;;;;32.08;51.98;100226.53;6222214;22;45308;-85
2023/07/29 11:16:05;;;;;;;;;1.00;1.00;;;;;32.01;52.04;100221.69;6222401;22;47317;-84
2023/07/29 11:18:33;;;;;;;;;1.25;1.25;;;;;32.13;50.99;100220.66;6249895;22;44916;-85
2023/07/29 11:20:59;;;;;;;;;1.50;1.50;;;;;32.03;51.73;100220.53;6222985;22;45313;-85
2023/07/29 11:23:37;;;;;;;;;3.00;3.00;;;;;32.32;49.76;100225.47;6250709;22;45710;-84
2023/07/29 11:26:04;;;;;;;;;3.75;3.00;;;;;32.13;51.49;100219.78;6221468;22;47369;-85
2023/07/29 11:28:30;;;;;;;;;1.25;1.25;;;;;32.17;51.93;100222.13;6222469;22;45255;-85
2023/07/29 11:30:56;;;;;;;;;2.00;2.00;;;;;32.51;51.42;100219.25;6250520;22;45446;-85
2023/07/29 11:33:28;;;;;;;;;1.25;1.25;;;;;32.58;50.35;100214.09;6222237;22;45339;-86
2023/07/29 11:35:53;;;;;;;;;3.25;2.50;;;;;32.14;49.61;100219.66;6251186;22;45405;-82
2023/07/29 11:38:21;;;;;;;;;1.25;1.25;;;;;32.06;51.10;100211.19;6224269;22;45411;-84
2023/07/29 11:41:07;;;;;;;;;1.25;1.25;;;;;32.07;50.54;100221.16;6223845;22;44830;-85
2023/07/29 11:43:36;;;;;;;;;1.50;0.75;;;;;32.03;51.07;100226.03;6220261;22;45404;-81
2023/07/29 11:46:01;;;;;;;;;2.25;2.25;;;;;31.84;51.66;100217.59;6246217;22;45380;-81
2023/07/29 11:48:36;;;;;;;;;1.00;1.00;;;;;32.24;50.33;100203.25;6219203;22;45346;-81
2023/07/29 11:51:03;;;;;;;;;2.25;0.75;;;;;32.17;52.31;100199.25;6219506;22;45375;-81
2023/07/29 11:53:30;;;;;;;;;0.25;0.25;;;;;32.32;51.75;100200.72;6218336;22;45335;-81
2023/07/29 11:55:56;;;;;;;;;0.00;0.00;;;;;32.36;51.39;100191.19;6218124;22;47193;-81
2023/07/29 11:58:23;;;;;;;;;1.75;1.75;;;;;32.55;50.24;100197.88;6244985;22;44819;-80
2023/07/29 12:00:49;;;;;;;;;2.00;1.25;;;;;32.29;49.94;100196.31;6217792;22;45341;-80
2023/07/29 12:03:17;;;;;;;;;1.25;1.25;;;;;32.34;52.31;100204.19;6246638;22;45438;-80
2023/07/29 12:05:43;;;;;;;;;1.75;1.75;;;;;32.32;51.56;100202.56;6218495;22;47098;-79
2023/07/29 12:11:30;;;;;;;;;0.50;0.25;;;;;32.16;50.62;100203.91;6251326;22;44826;-81
2023/07/29 12:13:56;;;;;;;;;0.75;0.75;;;;;32.08;51.47;100195.41;6219559;22;45258;-81
2023/07/29 12:16:21;;;;;;;;;0.00;0.00;;;;;32.17;52.34;100186.38;6218412;22;47260;-80
2023/07/29 12:18:48;;;;;;;;;2.00;0.50;;;;;32.30;52.14;100186.22;6249254;22;44730;-82
2023/07/29 12:21:14;;;;;;;;;0.00;0.00;;;;;32.66;50.27;100181.28;6224864;22;45417;-83
2023/07/29 12:23:40;;;;;;;;;0.00;0.00;;;;;32.68;50.03;100174.63;6224541;22;44904;-81
2023/07/29 12:26:05;;;;;;;;;0.50;0.50;;;;;32.75;50.72;100174.97;6224292;22;47471;-81
2023/07/29 12:28:31;;;;;;;;;0.00;0.00;;;;;32.94;50.49;100171.44;6240812;22;44850;-83
2023/07/29 12:30:57;;;;;;;;;1.25;1.25;;;;;33.24;50.41;100165.09;6239706;22;44828;-83
2023/07/29 12:36:57;;;;;;;;;2.75;1.00;;;;;33.25;47.18;100171.50;6268102;22;44981;-82
2023/07/29 12:39:33;;;;;;;;;1.00;1.00;;;;;33.27;49.39;100167.59;6267322;22;44803;-83
2023/07/29 12:42:00;;;;;;;;;0.00;0.00;;;;;33.21;49.78;100157.13;6266562;22;44790;-83
2023/07/29 12:44:33;;;;;;;;;1.00;1.00;;;;;33.44;49.11;100154.16;6236814;22;44865;-81
2023/07/29 12:47:01;;;;;;;;;2.00;1.00;;;;;33.43;48.20;100161.56;6244462;22;46421;-80
2023/07/29 12:49:28;;;;;;;;;1.00;1.00;;;;;33.31;48.59;100145.25;6255344;22;45219;-83
2023/07/29 12:51:53;;;;;;;;;0.25;0.25;;;;;33.36;49.03;100148.47;6239291;22;45223;-83
2023/07/29 12:54:19;;;;;;;;;1.75;1.75;;;;;33.56;48.97;100150.25;6263269;22;44780;-83
2023/07/29 12:56:44;;;;;;;;;0.50;0.50;;;;;33.67;47.03;100158.47;6238447;22;47124;-82
2023/07/29 12:59:09;;;;;;;;;1.25;1.00;;;;;33.64;46.47;100146.84;6266587;22;44736;-83
2023/07/29 13:01:35;;;;;;;;;1.00;1.00;;;;;33.54;47.17;100152.28;6265886;22;44889;-82
2023/07/29 13:04:00;;;;;;;;;1.00;1.00;;;;;33.46;46.74;100152.13;6233913;22;45290;-81
2023/07/29 13:06:25;;;;;;;;;0.00;0.00;;;;;33.40;47.98;100144.41;6217489;22;47082;-81
2023/07/29 13:08:51;;;;;;;;;0.00;0.00;;;;;33.39;48.74;100139.91;6217388;22;45675;-81
2023/07/29 13:11:17;;;;;;;;;0.00;0.00;;;;;33.48;46.73;100142.69;6245930;22;45407;-80
2023/07/29 13:13:43;;;;;;;;;0.25;0.00;;;;;33.52;47.65;100143.28;6245207;22;45407;-80
2023/07/29 13:16:09;;;;;;;;;1.00;1.00;;;;;33.60;48.34;100135.16;6246478;22;45394;-82
2023/07/29 13:18:34;;;;;;;;;2.00;2.00;;;;;33.72;47.34;100137.84;6267650;22;44819;-82
2023/07/29 13:21:00;;;;;;;;;2.75;1.75;;;;;33.72;47.96;100133.19;6268332;22;44728;-83
2023/07/29 13:23:27;;;;;;;;;1.25;1.25;;;;;34.01;47.67;100127.69;6240601;22;44854;-81
2023/07/29 13:25:53;;;;;;;;;1.00;1.00;;;;;34.11;46.80;100126.84;6266860;22;45335;-82